createdAt,value
2023-01-19T00:01:08.815Z,99106.81
2023-01-19T00:03:37.289Z,99100.97
2023-01-19T00:06:07.573Z,99097.97
2023-01-19T00:08:36.335Z,99098.66
2023-01-19T00:11:05.325Z,99090.31
2023-01-19T00:13:33.734Z,99095.63
2023-01-19T00:16:03.546Z,99091.28
2023-01-19T00:18:31.983Z,99097.59
2023-01-19T00:21:00.894Z,99098.88
2023-01-19T00:23:29.353Z,99097.19
2023-01-19T00:25:59.473Z,99102.81
2023-01-19T00:28:27.916Z,99097.00
2023-01-19T00:30:57.274Z,99097.13
2023-01-19T00:33:26.042Z,99087.53
2023-01-19T00:35:57.794Z,99086.88
2023-01-19T00:38:26.441Z,99082.53
2023-01-19T00:40:55.393Z,99082.81
2023-01-19T00:43:24.039Z,99077.53
2023-01-19T00:45:53.737Z,99083.16
2023-01-19T00:48:22.493Z,99071.72
2023-01-19T00:50:51.553Z,99079.00
2023-01-19T00:53:20.335Z,99081.81
2023-01-19T00:55:49.355Z,99072.31
2023-01-19T00:58:17.922Z,99077.81
2023-01-19T01:00:48.137Z,99070.81
2023-01-19T01:03:16.839Z,99077.94
2023-01-19T01:05:45.815Z,99080.75
2023-01-19T01:08:14.505Z,99081.03
2023-01-19T01:10:43.483Z,99080.38
2023-01-19T01:13:21.615Z,99088.31
2023-01-19T01:15:52.519Z,99093.94
2023-01-19T01:18:21.486Z,99096.59
2023-01-19T01:20:50.570Z,99091.44
2023-01-19T01:23:23.242Z,99092.44
2023-01-19T01:25:52.160Z,99089.06
2023-01-19T01:28:20.690Z,99099.84
2023-01-19T01:30:53.136Z,99096.53
2023-01-19T01:33:41.370Z,99085.25
2023-01-19T01:36:11.976Z,99093.34
2023-01-19T01:38:41.253Z,99091.84
2023-01-19T01:41:09.947Z,99095.44
2023-01-19T01:43:49.478Z,99085.16
2023-01-19T01:46:20.147Z,99085.16
2023-01-19T01:48:53.158Z,99082.69
2023-01-19T01:51:48.300Z,99076.53
2023-01-19T01:54:22.017Z,99079.63
2023-01-19T01:56:55.776Z,99077.44
2023-01-19T01:59:34.909Z,99084.09
2023-01-19T02:02:32.036Z,99088.72
2023-01-19T02:05:04.590Z,99084.53
2023-01-19T02:08:00.029Z,99078.56
2023-01-19T02:10:47.188Z,99080.25
2023-01-19T02:13:22.185Z,99073.44
2023-01-19T02:15:59.368Z,99075.25
2023-01-19T02:18:29.836Z,99072.91
2023-01-19T02:21:19.050Z,99072.06
2023-01-19T02:23:58.288Z,99076.53
2023-01-19T02:26:37.056Z,99080.16
2023-01-19T02:29:11.256Z,99077.66
2023-01-19T02:31:40.347Z,99071.69
2023-01-19T02:34:10.961Z,99070.00
2023-01-19T02:37:02.325Z,99068.38
2023-01-19T02:39:43.862Z,99067.50
2023-01-19T02:42:37.547Z,99057.25
2023-01-19T02:45:07.216Z,99056.41
2023-01-19T02:47:40.235Z,99059.06
2023-01-19T02:50:36.300Z,99063.69
2023-01-19T02:53:37.762Z,99077.06
2023-01-19T02:56:09.367Z,99072.72
2023-01-19T02:58:43.955Z,99079.84
2023-01-19T03:01:36.049Z,99082.63
2023-01-19T03:04:10.309Z,99093.38
2023-01-19T03:06:45.600Z,99096.00
2023-01-19T03:09:34.486Z,99091.72
2023-01-19T03:12:10.275Z,99097.00
2023-01-19T03:14:41.935Z,99108.56
2023-01-19T03:17:12.275Z,99101.38
2023-01-19T03:19:41.805Z,99100.53
2023-01-19T03:22:17.937Z,99100.94
2023-01-19T03:24:47.069Z,99101.91
2023-01-19T03:27:25.617Z,99105.56
2023-01-19T03:30:07.895Z,99117.09
2023-01-19T03:32:39.626Z,99118.94
2023-01-19T03:35:10.715Z,99116.44
2023-01-19T03:37:43.358Z,99121.72
2023-01-19T03:40:12.426Z,99113.09
2023-01-19T03:42:42.886Z,99111.44
2023-01-19T03:45:12.088Z,99123.69
2023-01-19T03:47:41.116Z,99130.94
2023-01-19T03:50:12.551Z,99127.56
2023-01-19T03:52:41.845Z,99117.97
2023-01-19T03:55:10.819Z,99110.03
2023-01-19T03:57:39.895Z,99109.19
2023-01-19T04:00:09.359Z,99100.56
2023-01-19T04:02:55.771Z,99104.03
2023-01-19T04:05:24.804Z,99108.66
2023-01-19T04:07:54.158Z,99106.00
2023-01-19T04:10:23.236Z,99114.94
2023-01-19T04:12:57.391Z,99118.41
2023-01-19T04:15:26.834Z,99115.06
2023-01-19T04:17:57.385Z,99101.97
2023-01-19T04:20:28.412Z,99101.97
2023-01-19T04:23:00.839Z,99104.63
2023-01-19T04:25:29.933Z,99110.91
2023-01-19T04:27:58.553Z,99109.25
2023-01-19T04:30:28.062Z,99110.91
2023-01-19T04:32:57.840Z,99105.63
2023-01-19T04:35:28.156Z,99106.44
2023-01-19T04:37:56.806Z,99106.59
2023-01-19T04:40:25.939Z,99110.91
2023-01-19T04:42:54.636Z,99114.25
2023-01-19T04:45:23.515Z,99123.84
2023-01-19T04:47:52.077Z,99120.50
2023-01-19T04:50:22.054Z,99113.88
2023-01-19T04:52:50.737Z,99121.25
2023-01-19T04:55:19.959Z,99109.19
2023-01-19T04:57:48.557Z,99113.47
2023-01-19T05:00:18.124Z,99125.19
2023-01-19T05:02:46.963Z,99125.97
2023-01-19T05:05:16.568Z,99124.59
2023-01-19T05:07:45.616Z,99123.44
2023-01-19T05:10:14.640Z,99131.31
2023-01-19T05:12:43.019Z,99122.97
2023-01-19T05:15:12.116Z,99133.28
2023-01-19T05:17:40.600Z,99132.06
2023-01-19T05:20:13.782Z,99131.16
2023-01-19T05:22:48.644Z,99128.56
2023-01-19T05:25:17.600Z,99130.94
2023-01-19T05:27:46.053Z,99135.63
2023-01-19T05:30:15.180Z,99134.63
2023-01-19T05:32:44.601Z,99148.28
2023-01-19T05:35:20.140Z,99147.84
2023-01-19T05:37:53.408Z,99141.53
2023-01-19T05:40:22.217Z,99155.34
2023-01-19T05:42:50.637Z,99147.69
2023-01-19T05:45:19.323Z,99161.03
2023-01-19T05:47:48.051Z,99161.06
2023-01-19T05:50:17.120Z,99167.41
2023-01-19T05:52:45.777Z,99167.28
2023-01-19T05:55:15.575Z,99157.16
2023-01-19T05:57:46.223Z,99161.06
2023-01-19T06:00:15.811Z,99164.41
2023-01-19T06:02:44.634Z,99167.22
2023-01-19T06:05:14.438Z,99177.84
2023-01-19T06:07:42.775Z,99164.06
2023-01-19T06:10:11.934Z,99174.06
2023-01-19T06:12:43.624Z,99185.41
2023-01-19T06:15:14.363Z,99179.56
2023-01-19T06:17:43.171Z,99192.50
2023-01-19T06:20:14.183Z,99192.72
2023-01-19T06:22:42.506Z,99183.06
2023-01-19T06:25:12.104Z,99199.34
2023-01-19T06:27:45.201Z,99208.16
2023-01-19T06:30:14.515Z,99216.44
2023-01-19T06:32:42.988Z,99218.59
2023-01-19T06:35:12.416Z,99228.38
2023-01-19T06:37:40.874Z,99189.78
2023-01-19T06:40:14.498Z,99222.19
2023-01-19T06:42:43.353Z,99218.19
2023-01-19T06:45:12.238Z,99216.00
2023-01-19T06:47:40.707Z,99226.97
2023-01-19T06:50:10.339Z,99227.88
2023-01-19T06:52:42.741Z,99236.34
2023-01-19T06:55:12.247Z,99239.16
2023-01-19T06:57:41.056Z,99241.09
2023-01-19T07:00:12.136Z,99246.69
2023-01-19T07:02:43.902Z,99244.00
2023-01-19T07:05:14.600Z,99253.78
2023-01-19T07:07:45.248Z,99244.41
2023-01-19T07:10:15.899Z,99262.84
2023-01-19T07:12:46.653Z,99259.81
2023-01-19T07:15:17.232Z,99276.88
2023-01-19T07:17:46.670Z,99281.31
2023-01-19T07:20:15.525Z,99277.66
2023-01-19T07:22:46.057Z,99283.44
2023-01-19T07:25:16.228Z,99270.25
2023-01-19T07:27:45.570Z,99294.81
2023-01-19T07:30:16.276Z,99293.47
2023-01-19T07:32:44.869Z,99294.91
2023-01-19T07:35:14.835Z,99308.59
2023-01-19T07:37:43.325Z,99314.22
2023-01-19T07:40:12.679Z,99318.16
2023-01-19T07:42:48.891Z,99323.75
2023-01-19T07:45:18.633Z,99320.88
2023-01-19T07:47:51.336Z,99325.50
2023-01-19T07:50:24.880Z,99341.66
2023-01-19T07:52:54.505Z,99349.94
2023-01-19T07:55:24.140Z,99348.72
2023-01-19T07:57:53.156Z,99362.94
2023-01-19T08:00:25.651Z,99368.56
2023-01-19T08:02:58.911Z,99367.16
2023-01-19T08:05:29.585Z,99377.06
2023-01-19T08:07:58.626Z,99387.00
2023-01-19T08:10:28.322Z,99396.09
2023-01-19T08:12:57.544Z,99391.91
2023-01-19T08:15:26.712Z,99408.09
2023-01-19T08:17:58.002Z,99419.69
2023-01-19T08:20:27.553Z,99421.66
2023-01-19T08:23:00.693Z,99427.25
2023-01-19T08:25:38.691Z,99440.06
2023-01-19T08:28:08.185Z,99440.06
2023-01-19T08:30:37.278Z,99441.06
2023-01-19T08:33:08.460Z,99464.38
2023-01-19T08:35:43.830Z,99465.09
2023-01-19T08:38:12.585Z,99467.47
2023-01-19T08:40:42.185Z,99480.03
2023-01-19T08:43:13.029Z,99490.88
2023-01-19T08:45:49.414Z,99495.63
2023-01-19T08:48:20.455Z,99497.72
2023-01-19T08:50:51.197Z,99502.34
2023-01-19T08:53:21.604Z,99505.97
2023-01-19T08:55:51.148Z,99517.13
2023-01-19T08:58:19.704Z,99521.31
2023-01-19T09:00:49.296Z,99517.84
2023-01-19T09:03:18.144Z,99513.50
2023-01-19T09:05:47.577Z,99513.78
2023-01-19T09:08:16.475Z,99519.34
2023-01-19T09:10:49.740Z,99525.78
2023-01-19T09:13:19.077Z,99522.44
2023-01-19T09:15:48.182Z,99523.53
2023-01-19T09:18:18.621Z,99528.00
2023-01-19T09:20:48.857Z,99528.44
2023-01-19T09:23:19.313Z,99542.63
2023-01-19T09:25:48.499Z,99544.59
2023-01-19T09:28:17.918Z,99547.22
2023-01-19T09:30:46.972Z,99556.16
2023-01-19T09:33:16.917Z,99561.47
2023-01-19T09:35:46.598Z,99560.78
2023-01-19T09:38:15.543Z,99561.72
2023-01-19T09:40:55.253Z,99561.72
2023-01-19T09:43:27.465Z,99569.81
2023-01-19T09:45:58.347Z,99569.94
2023-01-19T09:48:33.504Z,99577.88
2023-01-19T09:51:05.149Z,99583.16
2023-01-19T09:53:53.067Z,99589.47
2023-01-19T09:56:22.466Z,99595.72
2023-01-19T09:58:51.559Z,99594.31
2023-01-19T10:01:39.435Z,99596.00
2023-01-19T10:04:19.884Z,99596.97
2023-01-19T10:06:48.921Z,99597.94
2023-01-19T10:09:34.562Z,99596.97
2023-01-19T10:12:28.547Z,99606.72
2023-01-19T10:15:04.580Z,99606.84
2023-01-19T10:17:41.385Z,99596.25
2023-01-19T10:20:36.768Z,99596.25
2023-01-19T10:23:06.276Z,99598.22
2023-01-19T10:25:34.960Z,99606.16
2023-01-19T10:28:04.874Z,99608.09
2023-01-19T10:30:33.485Z,99606.44
2023-01-19T10:33:02.785Z,99608.38
2023-01-19T10:35:31.743Z,99613.69
2023-01-19T10:38:01.894Z,99606.56
2023-01-19T10:40:59.023Z,99602.81
2023-01-19T10:43:44.887Z,99603.66
2023-01-19T10:46:34.321Z,99607.88
2023-01-19T10:49:03.169Z,99599.38
2023-01-19T10:51:33.298Z,99593.25
2023-01-19T10:54:02.877Z,99594.34
2023-01-19T10:56:38.592Z,99592.56
2023-01-19T10:59:07.637Z,99594.66
2023-01-19T11:01:38.219Z,99592.69
2023-01-19T11:04:29.054Z,99591.00
2023-01-19T11:07:16.875Z,99577.03
2023-01-19T11:09:45.973Z,99573.22
2023-01-19T11:12:32.935Z,99577.00
2023-01-19T11:15:01.514Z,99573.91
2023-01-19T11:17:30.462Z,99573.47
2023-01-19T11:20:00.920Z,99567.44
2023-01-19T11:22:33.165Z,99564.91
2023-01-19T11:25:04.273Z,99561.78
2023-01-19T11:27:35.298Z,99556.22
2023-01-19T11:30:27.249Z,99544.72
2023-01-19T11:32:56.608Z,99554.53
2023-01-19T11:35:39.149Z,99534.28
2023-01-19T11:38:17.025Z,99564.88
2023-01-19T11:40:55.199Z,99549.78
2023-01-19T11:43:36.592Z,99543.03
2023-01-19T11:46:16.176Z,99546.13
2023-01-19T11:49:26.195Z,99537.41
2023-01-19T11:52:20.117Z,99533.81
2023-01-19T11:55:00.593Z,99528.03
2023-01-19T11:57:29.098Z,99527.56
2023-01-19T12:00:03.801Z,99534.09
2023-01-19T12:02:45.113Z,99539.25
2023-01-19T12:05:17.138Z,99536.38
2023-01-19T12:07:45.616Z,99534.00
2023-01-19T12:10:28.587Z,99532.88
2023-01-19T12:12:57.051Z,99533.09
2023-01-19T12:15:37.637Z,99529.75
2023-01-19T12:18:07.874Z,99519.00
2023-01-19T12:20:53.844Z,99514.28
2023-01-19T12:23:43.385Z,99530.06
2023-01-19T12:26:29.090Z,99516.56
2023-01-19T12:29:04.411Z,99525.84
2023-01-19T12:31:35.393Z,99523.47
2023-01-19T12:34:26.144Z,99524.06
2023-01-19T12:36:54.946Z,99529.06
2023-01-19T12:39:23.704Z,99538.56
2023-01-19T12:42:15.692Z,99531.34
2023-01-19T12:44:45.720Z,99534.75
2023-01-19T12:47:14.387Z,99529.59
2023-01-19T12:49:49.985Z,99524.06
2023-01-19T12:52:41.470Z,99526.59
2023-01-19T12:55:51.461Z,99514.53
2023-01-19T12:58:24.245Z,99520.84
2023-01-19T13:01:18.462Z,99527.09
2023-01-19T13:04:04.486Z,99531.31
2023-01-19T13:06:54.335Z,99538.59
2023-01-19T13:09:33.640Z,99525.38
2023-01-19T13:12:14.665Z,99541.16
2023-01-19T13:14:43.526Z,99541.47
2023-01-19T13:17:34.412Z,99547.19
2023-01-19T13:20:23.585Z,99537.91
2023-01-19T13:23:26.311Z,99555.19
2023-01-19T13:26:02.718Z,99550.34
2023-01-19T13:28:41.493Z,99553.81
2023-01-19T13:31:10.428Z,99547.97
2023-01-19T13:33:56.491Z,99549.91
2023-01-19T13:36:36.973Z,99564.84
2023-01-19T13:39:25.891Z,99559.13
2023-01-19T13:41:56.951Z,99565.56
2023-01-19T13:44:29.733Z,99568.38
2023-01-19T13:46:59.962Z,99568.63
2023-01-19T13:49:31.470Z,99567.69
2023-01-19T13:52:22.743Z,99569.22
2023-01-19T13:54:55.700Z,99573.97
2023-01-19T13:57:41.137Z,99569.41
2023-01-19T14:00:12.878Z,99575.22
2023-01-19T14:03:02.596Z,99578.03
2023-01-19T14:05:36.416Z,99582.78
2023-01-19T14:08:13.054Z,99591.81
2023-01-19T14:10:56.794Z,99593.09
2023-01-19T14:13:40.286Z,99600.09
2023-01-19T14:16:16.777Z,99602.03
2023-01-19T14:18:45.636Z,99596.31
2023-01-19T14:21:15.266Z,99591.56
2023-01-19T14:23:51.152Z,99605.38
2023-01-19T14:26:39.445Z,99615.28
2023-01-19T14:29:18.804Z,99610.94
2023-01-19T14:32:09.306Z,99613.03
2023-01-19T14:34:46.314Z,99610.25
2023-01-19T14:37:32.225Z,99613.59
2023-01-19T14:40:13.426Z,99611.25
2023-01-19T14:43:03.492Z,99615.84
2023-01-19T14:45:39.435Z,99611.63
2023-01-19T14:48:17.812Z,99615.16
2023-01-19T14:51:02.376Z,99613.47
2023-01-19T14:53:36.885Z,99615.41
2023-01-19T14:56:07.028Z,99621.81
2023-01-19T14:58:36.091Z,99629.91
2023-01-19T15:01:06.715Z,99629.22
2023-01-19T15:03:44.193Z,99630.16
2023-01-19T15:06:16.017Z,99637.28
2023-01-19T15:08:44.764Z,99634.94
2023-01-19T15:11:17.005Z,99638.53
2023-01-19T15:13:45.815Z,99637.00
2023-01-19T15:16:14.921Z,99640.63
2023-01-19T15:18:43.693Z,99632.78
2023-01-19T15:21:19.713Z,99635.75
2023-01-19T15:23:48.481Z,99642.84
2023-01-19T15:26:20.981Z,99645.50
2023-01-19T15:28:49.876Z,99650.06
2023-01-19T15:31:23.343Z,99643.94
2023-01-19T15:33:52.006Z,99641.41
2023-01-19T15:36:22.055Z,99650.34
2023-01-19T15:38:51.608Z,99645.19
2023-01-19T15:41:30.276Z,99647.25
2023-01-19T15:43:59.049Z,99652.69
2023-01-19T15:46:28.110Z,99656.19
2023-01-19T15:48:56.754Z,99647.25
2023-01-19T15:51:27.074Z,99654.25
2023-01-19T15:53:55.842Z,99654.50
2023-01-19T15:56:26.819Z,99657.97
2023-01-19T15:58:55.819Z,99658.97
2023-01-19T16:01:35.353Z,99659.22
2023-01-19T16:04:05.747Z,99660.34
2023-01-19T16:06:34.819Z,99660.47
2023-01-19T16:09:04.057Z,99662.03
2023-01-19T16:11:33.881Z,99664.25
2023-01-19T16:14:02.723Z,99659.00
2023-01-19T16:16:31.781Z,99666.84
2023-01-19T16:19:00.468Z,99671.88
2023-01-19T16:21:30.474Z,99672.56
2023-01-19T16:23:59.157Z,99676.94
2023-01-19T16:26:34.653Z,99669.94
2023-01-19T16:29:09.995Z,99677.78
2023-01-19T16:31:41.091Z,99677.06
2023-01-19T16:34:09.851Z,99671.06
2023-01-19T16:36:41.133Z,99676.81
2023-01-19T16:39:13.263Z,99681.94
2023-01-19T16:41:43.855Z,99684.06
2023-01-19T16:44:13.204Z,99692.84
2023-01-19T16:46:45.368Z,99688.50
2023-01-19T16:49:28.148Z,99692.69
2023-01-19T16:51:58.671Z,99710.56
2023-01-19T16:54:27.596Z,99717.06
2023-01-19T16:56:57.866Z,99725.88
2023-01-19T16:59:27.406Z,99737.88
2023-01-19T17:01:57.209Z,99732.69
2023-01-19T17:04:27.652Z,99742.72
2023-01-19T17:06:56.589Z,99749.41
2023-01-19T17:09:25.138Z,99739.63
2023-01-19T17:11:53.985Z,99752.59
2023-01-19T17:14:22.504Z,99765.84
2023-01-19T17:16:51.335Z,99762.44
2023-01-19T17:19:20.734Z,99767.75
2023-01-19T17:21:50.094Z,99751.00
2023-01-19T17:24:18.664Z,99766.63
2023-01-19T17:26:48.926Z,99763.25
2023-01-19T17:29:17.533Z,99762.66
2023-01-19T17:31:46.994Z,99775.69
2023-01-19T17:34:15.608Z,99771.75
2023-01-19T17:36:45.036Z,99768.06
2023-01-19T17:39:15.108Z,99768.19
2023-01-19T17:41:45.090Z,99766.47
2023-01-19T17:44:13.634Z,99770.06
2023-01-19T17:46:42.419Z,99768.72
2023-01-19T17:49:11.316Z,99759.72
2023-01-19T17:51:40.079Z,99762.94
2023-01-19T17:54:08.594Z,99770.31
2023-01-19T17:56:38.893Z,99765.44
2023-01-19T17:59:08.344Z,99768.03
2023-01-19T18:01:40.099Z,99771.53
2023-01-19T18:04:09.219Z,99773.44
2023-01-19T18:06:39.688Z,99759.38
2023-01-19T18:09:08.193Z,99778.69
2023-01-19T18:11:38.269Z,99774.19
2023-01-19T18:14:07.126Z,99787.06
2023-01-19T18:16:36.206Z,99782.16
2023-01-19T18:19:05.072Z,99778.81
2023-01-19T18:21:35.194Z,99778.38
2023-01-19T18:24:05.051Z,99761.88
2023-01-19T18:26:34.691Z,99775.03
2023-01-19T18:29:03.434Z,99772.75
2023-01-19T18:31:32.390Z,99772.59
2023-01-19T18:34:01.166Z,99777.19
2023-01-19T18:36:32.171Z,99755.75
2023-01-19T18:39:01.569Z,99770.13
2023-01-19T18:41:31.373Z,99761.13
2023-01-19T18:44:00.095Z,99755.59
2023-01-19T18:46:29.010Z,99770.47
2023-01-19T18:48:57.497Z,99765.16
2023-01-19T18:51:26.320Z,99761.44
2023-01-19T18:53:55.045Z,99758.59
2023-01-19T18:56:23.984Z,99764.50
2023-01-19T18:58:55.573Z,99760.94
2023-01-19T19:01:40.714Z,99760.41
2023-01-19T19:04:09.229Z,99769.91
2023-01-19T19:06:38.006Z,99767.03
2023-01-19T19:09:06.768Z,99760.84
2023-01-19T19:11:35.920Z,99766.16
2023-01-19T19:14:04.417Z,99762.91
2023-01-19T19:16:35.843Z,99765.19
2023-01-19T19:19:05.708Z,99769.09
2023-01-19T19:21:34.445Z,99765.53
2023-01-19T19:24:02.986Z,99770.63
2023-01-19T19:26:32.914Z,99769.25
2023-01-19T19:29:03.917Z,99774.59
2023-01-19T19:31:33.889Z,99773.75
2023-01-19T19:34:02.484Z,99758.09
2023-01-19T19:36:31.957Z,99765.09
2023-01-19T19:39:00.500Z,99756.66
2023-01-19T19:41:29.325Z,99756.56
2023-01-19T19:43:57.849Z,99749.66
2023-01-19T19:46:27.717Z,99756.91
2023-01-19T19:48:56.210Z,99761.44
2023-01-19T19:51:27.350Z,99767.06
2023-01-19T19:53:58.978Z,99768.16
2023-01-19T19:56:29.870Z,99770.19
2023-01-19T19:59:00.316Z,99762.19
2023-01-19T20:01:32.791Z,99765.00
2023-01-19T20:04:10.217Z,99771.50
2023-01-19T20:06:44.886Z,99760.06
2023-01-19T20:09:14.413Z,99754.59
2023-01-19T20:11:44.775Z,99762.44
2023-01-19T20:14:14.158Z,99773.03
2023-01-19T20:16:44.107Z,99770.75
2023-01-19T20:19:12.519Z,99781.59
2023-01-19T20:21:42.010Z,99778.25
2023-01-19T20:24:19.195Z,99782.09
2023-01-19T20:26:51.262Z,99764.97
2023-01-19T20:29:19.972Z,99779.97
2023-01-19T20:31:55.059Z,99771.91
2023-01-19T20:34:27.181Z,99779.03
2023-01-19T20:36:55.973Z,99781.88
2023-01-19T20:39:24.669Z,99776.44
2023-01-19T20:41:53.537Z,99785.81
2023-01-19T20:44:24.396Z,99782.44
2023-01-19T20:46:53.677Z,99771.88
2023-01-19T20:49:22.228Z,99776.00
2023-01-19T20:51:52.275Z,99778.59
2023-01-19T20:54:24.602Z,99786.94
2023-01-19T20:56:53.823Z,99792.50
2023-01-19T20:59:22.465Z,99798.13
2023-01-19T21:01:51.607Z,99802.47
2023-01-19T21:04:20.793Z,99809.09
2023-01-19T21:06:49.582Z,99811.13
2023-01-19T21:09:18.793Z,99812.25
2023-01-19T21:11:47.598Z,99816.84
2023-01-19T21:14:16.088Z,99819.28
2023-01-19T21:16:44.956Z,99823.25
2023-01-19T21:19:13.608Z,99823.16
2023-01-19T21:21:42.326Z,99820.38
2023-01-19T21:24:11.017Z,99813.22
2023-01-19T21:26:42.565Z,99811.44
2023-01-19T21:29:13.642Z,99809.22
2023-01-19T21:31:42.699Z,99817.50
2023-01-19T21:34:11.391Z,99823.69
2023-01-19T21:36:40.418Z,99822.88
2023-01-19T21:39:09.479Z,99821.16
2023-01-19T21:41:40.067Z,99818.09
2023-01-19T21:44:08.575Z,99821.34
2023-01-19T21:46:37.491Z,99812.59
2023-01-19T21:49:07.791Z,99837.22
2023-01-19T21:51:37.689Z,99835.53
2023-01-19T21:54:06.789Z,99823.81
2023-01-19T21:56:35.996Z,99846.47
2023-01-19T21:59:05.186Z,99845.59
2023-01-19T22:01:34.366Z,99840.84
2023-01-19T22:04:02.945Z,99848.69
2023-01-19T22:06:31.171Z,99849.22
2023-01-19T22:09:00.959Z,99855.09
2023-01-19T22:11:30.222Z,99855.38
2023-01-19T22:14:00.508Z,99851.78
2023-01-19T22:16:33.541Z,99843.69
2023-01-19T22:19:02.604Z,99863.16
2023-01-19T22:21:33.448Z,99862.06
2023-01-19T22:24:03.352Z,99867.81
2023-01-19T22:26:32.396Z,99865.03
2023-01-19T22:29:01.952Z,99871.88
2023-01-19T22:31:31.062Z,99870.66
2023-01-19T22:34:00.161Z,99869.41
2023-01-19T22:36:30.339Z,99863.66
2023-01-19T22:39:00.728Z,99856.69
2023-01-19T22:41:34.331Z,99865.34
2023-01-19T22:44:05.700Z,99848.88
2023-01-19T22:46:36.037Z,99863.53
2023-01-19T22:49:07.671Z,99857.84
2023-01-19T22:51:36.734Z,99861.75
2023-01-19T22:54:05.822Z,99860.34
2023-01-19T22:56:35.527Z,99858.00
2023-01-19T22:59:04.705Z,99864.56
2023-01-19T23:01:39.079Z,99865.97
2023-01-19T23:04:08.937Z,99868.06
2023-01-19T23:06:37.763Z,99857.88
2023-01-19T23:09:11.339Z,99862.06
2023-01-19T23:11:41.973Z,99874.34
2023-01-19T23:14:17.474Z,99872.13
2023-01-19T23:16:47.386Z,99877.72
2023-01-19T23:19:17.486Z,99875.47
2023-01-19T23:21:46.078Z,99885.38
2023-01-19T23:24:17.065Z,99878.69
2023-01-19T23:26:45.598Z,99881.75
2023-01-19T23:29:16.697Z,99878.69
2023-01-19T23:31:47.504Z,99890.13
2023-01-19T23:34:16.647Z,99885.25
2023-01-19T23:36:45.544Z,99880.91
2023-01-19T23:39:19.012Z,99889.16
2023-01-19T23:41:47.440Z,99878.78
2023-01-19T23:44:17.538Z,99890.41
2023-01-19T23:46:46.280Z,99877.25
2023-01-19T23:49:17.219Z,99890.25
2023-01-19T23:51:45.647Z,99898.34
2023-01-19T23:54:14.396Z,99898.56
2023-01-19T23:56:43.005Z,99892.28
2023-01-19T23:59:13.966Z,99885.56
